< < Back
Terminal Aerodrome Forecast


Current Version              Previous Versions:   1  2  3  4  5  6  7  8  9  

Terminal Aerodrome Forecast

045
FTUS42 KFFC 191100
TAFMCN
TAF
KMCN 191120Z 1912/2012 03012G20KT 6SM -RA BKN008
     FM192100 04014G24KT P6SM BKN015
     FM200100 04010KT P6SM BKN020=

Latest METAR

492
SAUS80 KWBC 191500 RRA
MTRMCN
METAR KMCN 191453Z 03013KT 10SM OVC009 13/12 A3003 RMK AO2 SLP167
T01280117 53003


USA.gov is the U.S. government's official web portal to all federal, state and local government web resources and services.